Millner, Australia

9:43 PM ACST on February 20, 2017 (GMT +0930)
Halkitis Court | | Change Station

Elev 26 ft 12.39 °S, 130.85 °E | Updated 2 minutes ago

Clear
Clear
84.6 °F
Feels Like 98 °F
N
2.5
Wind Variable Wind from WSW
Gusts 5.6 mph

Today
High -- | Low -- °F
--% Chance of Precip.
Yesterday
High -- | Low -- °F
Precip. -- in
Pressure 29.80 in
Visibility -9999.0 miles
Clouds
Heat Index 98 °F
Dew Point 80 °F
Humidity 85%
Rainfall 0.50 in
Snow Depth Not available.
6:47 AM 7:13 PM
Waning Crescent, 34% visible
METAR YPDN 201200Z 27005KT CAVOK 28/25 Q1009 NOSIG RMK USE TAF FOR ARRIVALS AFTER 1230Z
Pressure 29.80 in
Visibility -9999.0 miles
Clouds
Heat Index 98 °F
Dew Point 80 °F
Humidity 85%
Rainfall 0.50 in
Snow Depth Not available.
6:47 AM 7:13 PM
Waning Crescent, 34% visible
METAR YPDN 201200Z 27005KT CAVOK 28/25 Q1009 NOSIG RMK USE TAF FOR ARRIVALS AFTER 1230Z

Get Your Daily Forecast Email!

Thanks for signing up!

Be on the lookout for a verification email in your inbox.

You'll start receiving the daily forecast at 8 AM.

×

10-Day Weather Forecast

×

Almanac

Astronomy

Feb. 20, 2017 Rise Set
Actual Time
Civil Twilight
Nautical Twilight
Astronomical Twilight
Moon
Length of Visible Light
Length of Day
Tomorrow will be .
, % of the Moon is Illuminated

Today's Extremes

Country Highs Country Lows

Community

WunderPhotos

Upload Photos

1,962,540 photos uploaded!

WunderBlog® & News

Nearby

Air Quality

  Air Quality AQ Index Pollutant
Not available.

Snow Depth

Station Depth Elevation

Earthquake Activity

City Distance Mag. Time & Date
Minimum magnitude displayed is 2.5.

Coastal Water Temperatures

Place Temperature

Stations

Nearby Weather Stations

Station Location Temp. Windchill Dew Point Humidity Wind Precip. Elev Updated Type